sensor_id;sensor_type;location;lat;lon;timestamp;pressure;altitude;pressure_sealevel;temperature;humidity
22649;BME280;11491;41.942;24.220;2022-10-16T00:01:34;90496.53;;;9.04;85.92
22649;BME280;11491;41.942;24.220;2022-10-16T00:04:02;90486.63;;;9.13;85.04
22649;BME280;11491;41.942;24.220;2022-10-16T00:06:29;90493.97;;;9.16;84.60
22649;BME280;11491;41.942;24.220;2022-10-16T00:08:58;90493.19;;;9.16;84.27
22649;BME280;11491;41.942;24.220;2022-10-16T00:11:26;90497.66;;;8.94;85.35
22649;BME280;11491;41.942;24.220;2022-10-16T00:13:57;90494.13;;;8.64;87.06
22649;BME280;11491;41.942;24.220;2022-10-16T00:16:24;90499.91;;;8.75;87.53
22649;BME280;11491;41.942;24.220;2022-10-16T00:18:51;90501.00;;;8.82;87.57
22649;BME280;11491;41.942;24.220;2022-10-16T00:21:21;90496.09;;;8.93;87.06
22649;BME280;11491;41.942;24.220;2022-10-16T00:23:50;90500.00;;;8.96;86.94
22649;BME280;11491;41.942;24.220;2022-10-16T00:26:19;90505.34;;;8.96;87.34
22649;BME280;11491;41.942;24.220;2022-10-16T00:28:46;90497.66;;;8.94;87.76
22649;BME280;11491;41.942;24.220;2022-10-16T00:31:13;90483.28;;;8.78;87.43
22649;BME280;11491;41.942;24.220;2022-10-16T00:33:40;90490.97;;;8.79;88.10
22649;BME280;11491;41.942;24.220;2022-10-16T00:36:10;90486.84;;;8.91;87.99
22649;BME280;11491;41.942;24.220;2022-10-16T00:38:37;90489.69;;;8.86;87.95
22649;BME280;11491;41.942;24.220;2022-10-16T00:41:04;90489.63;;;9.03;87.33
22649;BME280;11491;41.942;24.220;2022-10-16T00:43:36;90491.19;;;9.04;86.92
22649;BME280;11491;41.942;24.220;2022-10-16T00:46:05;90484.00;;;8.96;86.95
22649;BME280;11491;41.942;24.220;2022-10-16T00:48:32;90491.38;;;8.99;87.31
22649;BME280;11491;41.942;24.220;2022-10-16T00:50:59;90486.72;;;8.87;87.59
22649;BME280;11491;41.942;24.220;2022-10-16T00:53:27;90497.97;;;8.93;87.63
22649;BME280;11491;41.942;24.220;2022-10-16T00:55:54;90501.59;;;8.97;87.18
22649;BME280;11491;41.942;24.220;2022-10-16T00:58:20;90504.69;;;8.99;86.82
22649;BME280;11491;41.942;24.220;2022-10-16T01:00:49;90512.09;;;9.02;86.31
22649;BME280;11491;41.942;24.220;2022-10-16T01:03:24;90512.25;;;8.97;85.88
22649;BME280;11491;41.942;24.220;2022-10-16T01:05:59;90517.09;;;9.03;84.67
22649;BME280;11491;41.942;24.220;2022-10-16T01:08:34;90513.81;;;8.98;84.64
22649;BME280;11491;41.942;24.220;2022-10-16T01:11:13;90512.56;;;8.87;84.99
22649;BME280;11491;41.942;24.220;2022-10-16T01:13:46;90519.84;;;8.77;85.32
22649;BME280;11491;41.942;24.220;2022-10-16T01:16:22;90496.22;;;8.50;85.76
22649;BME280;11491;41.942;24.220;2022-10-16T01:18:56;90528.31;;;8.45;86.58
22649;BME280;11491;41.942;24.220;2022-10-16T01:21:28;90532.25;;;8.56;86.79
22649;BME280;11491;41.942;24.220;2022-10-16T01:24:01;90531.44;;;8.64;85.74
22649;BME280;11491;41.942;24.220;2022-10-16T01:26:43;90528.03;;;8.55;85.53
22649;BME280;11491;41.942;24.220;2022-10-16T01:29:18;90532.53;;;8.54;85.15
22649;BME280;11491;41.942;24.220;2022-10-16T01:31:49;90521.09;;;8.54;85.14
22649;BME280;11491;41.942;24.220;2022-10-16T01:34:19;90530.03;;;8.49;84.62
22649;BME280;11491;41.942;24.220;2022-10-16T01:36:50;90530.97;;;8.36;85.11
22649;BME280;11491;41.942;24.220;2022-10-16T01:39:22;90525.50;;;8.24;85.18
22649;BME280;11491;41.942;24.220;2022-10-16T01:41:55;90534.09;;;8.03;85.70
22649;BME280;11491;41.942;24.220;2022-10-16T01:44:29;90533.59;;;7.92;86.92
22649;BME280;11491;41.942;24.220;2022-10-16T01:46:59;90541.75;;;7.87;86.87
22649;BME280;11491;41.942;24.220;2022-10-16T01:49:30;90537.66;;;7.81;87.00
22649;BME280;11491;41.942;24.220;2022-10-16T01:51:59;90535.50;;;7.83;86.84
22649;BME280;11491;41.942;24.220;2022-10-16T01:54:31;90531.72;;;7.84;86.16
22649;BME280;11491;41.942;24.220;2022-10-16T01:56:59;90529.06;;;7.84;85.10
22649;BME280;11491;41.942;24.220;2022-10-16T01:59:31;90539.19;;;7.65;84.20
22649;BME280;11491;41.942;24.220;2022-10-16T02:02:01;90537.94;;;7.53;84.74
22649;BME280;11491;41.942;24.220;2022-10-16T02:04:33;90532.75;;;7.48;84.65
22649;BME280;11491;41.942;24.220;2022-10-16T02:07:01;90531.66;;;7.49;83.37
22649;BME280;11491;41.942;24.220;2022-10-16T02:09:29;90531.94;;;7.39;83.57
22649;BME280;11491;41.942;24.220;2022-10-16T02:11:57;90536.56;;;7.25;84.27
22649;BME280;11491;41.942;24.220;2022-10-16T02:14:29;90539.38;;;7.20;83.75
22649;BME280;11491;41.942;24.220;2022-10-16T02:16:56;90541.81;;;7.07;84.10
22649;BME280;11491;41.942;24.220;2022-10-16T02:19:23;90544.53;;;6.85;84.93
22649;BME280;11491;41.942;24.220;2022-10-16T02:21:53;90538.84;;;6.78;85.55
22649;BME280;11491;41.942;24.220;2022-10-16T02:24:28;90541.97;;;6.71;86.06
22649;BME280;11491;41.942;24.220;2022-10-16T02:27:03;90545.53;;;6.66;85.86
22649;BME280;11491;41.942;24.220;2022-10-16T02:29:38;90541.63;;;6.73;85.44
22649;BME280;11491;41.942;24.220;2022-10-16T02:32:07;90540.59;;;6.51;85.16
22649;BME280;11491;41.942;24.220;2022-10-16T02:34:36;90549.81;;;6.54;85.44
22649;BME280;11491;41.942;24.220;2022-10-16T02:37:04;90538.63;;;6.43;84.87
22649;BME280;11491;41.942;24.220;2022-10-16T02:39:32;90552.03;;;6.60;83.81
22649;BME280;11491;41.942;24.220;2022-10-16T02:42:00;90558.25;;;6.56;83.95
22649;BME280;11491;41.942;24.220;2022-10-16T02:44:26;90558.09;;;6.52;84.46
22649;BME280;11491;41.942;24.220;2022-10-16T02:46:54;90561.47;;;6.44;84.50
22649;BME280;11491;41.942;24.220;2022-10-16T02:49:21;90564.63;;;6.46;85.18
22649;BME280;11491;41.942;24.220;2022-10-16T02:51:48;90563.28;;;6.35;85.43
22649;BME280;11491;41.942;24.220;2022-10-16T02:54:15;90558.34;;;6.42;84.78
22649;BME280;11491;41.942;24.220;2022-10-16T02:56:41;90564.63;;;6.46;84.90
22649;BME280;11491;41.942;24.220;2022-10-16T02:59:08;90567.84;;;6.43;85.05
22649;BME280;11491;41.942;24.220;2022-10-16T03:01:35;90563.75;;;6.37;85.25
22649;BME280;11491;41.942;24.220;2022-10-16T03:04:03;90565.66;;;6.36;84.81
22649;BME280;11491;41.942;24.220;2022-10-16T03:06:30;90567.63;;;6.31;84.33
22649;BME280;11491;41.942;24.220;2022-10-16T03:08:57;90576.53;;;6.12;85.16
22649;BME280;11491;41.942;24.220;2022-10-16T03:11:24;90571.94;;;6.04;85.68
22649;BME280;11491;41.942;24.220;2022-10-16T03:13:51;90580.47;;;6.01;86.09
22649;BME280;11491;41.942;24.220;2022-10-16T03:16:18;90585.59;;;6.11;84.90
22649;BME280;11491;41.942;24.220;2022-10-16T03:18:47;90588.25;;;6.11;84.13
22649;BME280;11491;41.942;24.220;2022-10-16T03:21:15;90578.50;;;5.93;84.86
22649;BME280;11491;41.942;24.220;2022-10-16T03:23:42;90588.38;;;5.78;85.39
22649;BME280;11491;41.942;24.220;2022-10-16T03:26:09;90591.13;;;5.73;85.70
22649;BME280;11491;41.942;24.220;2022-10-16T03:28:36;90588.78;;;5.58;85.84
22649;BME280;11491;41.942;24.220;2022-10-16T03:31:02;90591.94;;;5.60;86.08
22649;BME280;11491;41.942;24.220;2022-10-16T03:33:29;90597.63;;;5.53;85.85
22649;BME280;11491;41.942;24.220;2022-10-16T03:35:56;90593.09;;;5.54;85.86
22649;BME280;11491;41.942;24.220;2022-10-16T03:38:24;90592.53;;;5.57;85.90
22649;BME280;11491;41.942;24.220;2022-10-16T03:40:50;90596.06;;;5.52;86.16
22649;BME280;11491;41.942;24.220;2022-10-16T03:43:17;90589.59;;;5.45;86.60
22649;BME280;11491;41.942;24.220;2022-10-16T03:45:44;90581.91;;;5.43;86.30
22649;BME280;11491;41.942;24.220;2022-10-16T03:48:11;90582.91;;;5.33;86.26
22649;BME280;11491;41.942;24.220;2022-10-16T03:50:38;90586.25;;;5.25;86.99
22649;BME280;11491;41.942;24.220;2022-10-16T03:53:04;90589.09;;;5.15;86.99
22649;BME280;11491;41.942;24.220;2022-10-16T03:55:32;90591.16;;;5.18;86.99
22649;BME280;11491;41.942;24.220;2022-10-16T03:57:59;90601.56;;;5.28;86.40
22649;BME280;11491;41.942;24.220;2022-10-16T04:00:26;90593.50;;;5.33;86.56
22649;BME280;11491;41.942;24.220;2022-10-16T04:02:53;90598.00;;;5.19;86.21
22649;BME280;11491;41.942;24.220;2022-10-16T04:05:20;90599.78;;;5.10;86.42
22649;BME280;11491;41.942;24.220;2022-10-16T04:07:47;90580.31;;;5.01;85.88
22649;BME280;11491;41.942;24.220;2022-10-16T04:10:14;90601.53;;;5.01;86.54
22649;BME280;11491;41.942;24.220;2022-10-16T04:12:42;90580.28;;;4.87;87.19
22649;BME280;11491;41.942;24.220;2022-10-16T04:15:09;90590.66;;;5.02;87.42
22649;BME280;11491;41.942;24.220;2022-10-16T04:17:36;90592.50;;;5.02;88.15
22649;BME280;11491;41.942;24.220;2022-10-16T04:20:03;90591.63;;;4.92;89.03
22649;BME280;11491;41.942;24.220;2022-10-16T04:22:30;90581.19;;;4.82;90.49
22649;BME280;11491;41.942;24.220;2022-10-16T04:24:57;90576.38;;;4.84;90.26
22649;BME280;11491;41.942;24.220;2022-10-16T04:27:23;90580.69;;;4.94;90.99
22649;BME280;11491;41.942;24.220;2022-10-16T04:29:51;90583.63;;;4.79;91.12
22649;BME280;11491;41.942;24.220;2022-10-16T04:32:18;90578.94;;;4.89;90.91
22649;BME280;11491;41.942;24.220;2022-10-16T04:34:45;90587.19;;;5.02;90.29
22649;BME280;11491;41.942;24.220;2022-10-16T04:37:12;90595.63;;;5.04;89.71
22649;BME280;11491;41.942;24.220;2022-10-16T04:39:38;90589.38;;;5.00;89.88
22649;BME280;11491;41.942;24.220;2022-10-16T04:42:05;90594.47;;;5.10;89.51
22649;BME280;11491;41.942;24.220;2022-10-16T04:44:32;90605.97;;;5.05;89.27
22649;BME280;11491;41.942;24.220;2022-10-16T04:47:00;90602.34;;;5.15;88.02
22649;BME280;11491;41.942;24.220;2022-10-16T04:49:27;90599.38;;;5.03;89.07
22649;BME280;11491;41.942;24.220;2022-10-16T04:51:53;90600.94;;;5.04;89.01
22649;BME280;11491;41.942;24.220;2022-10-16T04:54:20;90603.22;;;5.10;88.91
22649;BME280;11491;41.942;24.220;2022-10-16T04:56:47;90597.31;;;5.00;89.18
22649;BME280;11491;41.942;24.220;2022-10-16T04:59:17;90599.78;;;5.10;88.11
22649;BME280;11491;41.942;24.220;2022-10-16T05:01:44;90590.50;;;4.80;87.19
22649;BME280;11491;41.942;24.220;2022-10-16T05:04:12;90588.72;;;4.75;87.68
22649;BME280;11491;41.942;24.220;2022-10-16T05:06:40;90604.38;;;4.58;88.21
22649;BME280;11491;41.942;24.220;2022-10-16T05:09:08;90608.09;;;4.57;88.21
22649;BME280;11491;41.942;24.220;2022-10-16T05:11:35;90604.56;;;4.47;88.21
22649;BME280;11491;41.942;24.220;2022-10-16T05:14:02;90610.03;;;4.51;89.07
22649;BME280;11491;41.942;24.220;2022-10-16T05:16:28;90620.47;;;4.61;89.15
22649;BME280;11491;41.942;24.220;2022-10-16T05:18:55;90620.69;;;4.65;88.69
22649;BME280;11491;41.942;24.220;2022-10-16T05:21:24;90622.16;;;4.71;88.16
22649;BME280;11491;41.942;24.220;2022-10-16T05:23:50;90627.13;;;4.59;88.77
22649;BME280;11491;41.942;24.220;2022-10-16T05:26:19;90628.84;;;4.49;90.13
22649;BME280;11491;41.942;24.220;2022-10-16T05:28:46;90631.22;;;4.51;90.58
22649;BME280;11491;41.942;24.220;2022-10-16T05:31:13;90639.72;;;4.67;90.47
22649;BME280;11491;41.942;24.220;2022-10-16T05:33:39;90640.03;;;4.79;89.70
22649;BME280;11491;41.942;24.220;2022-10-16T05:36:08;90638.81;;;4.90;88.31
22649;BME280;11491;41.942;24.220;2022-10-16T05:38:37;90640.09;;;4.93;89.24
22649;BME280;11491;41.942;24.220;2022-10-16T05:41:04;90645.41;;;4.93;89.32
22649;BME280;11491;41.942;24.220;2022-10-16T05:43:32;90646.69;;;4.95;89.40
22649;BME280;11491;41.942;24.220;2022-10-16T05:46:01;90651.81;;;5.06;88.19
22649;BME280;11491;41.942;24.220;2022-10-16T05:48:28;90654.88;;;5.13;87.86
22649;BME280;11491;41.942;24.220;2022-10-16T05:50:59;90652.25;;;5.27;88.04
22649;BME280;11491;41.942;24.220;2022-10-16T05:53:27;90658.06;;;5.43;87.29
22649;BME280;11491;41.942;24.220;2022-10-16T05:55:56;90657.16;;;5.33;87.89
22649;BME280;11491;41.942;24.220;2022-10-16T05:58:23;90666.41;;;5.50;87.55
22649;BME280;11491;41.942;24.220;2022-10-16T06:00:54;90661.31;;;5.67;86.40
22649;BME280;11491;41.942;24.220;2022-10-16T06:03:22;90675.63;;;5.66;86.18
22649;BME280;11491;41.942;24.220;2022-10-16T06:05:49;90670.25;;;5.85;85.53
22649;BME280;11491;41.942;24.220;2022-10-16T06:08:16;90666.41;;;6.05;85.38
22649;BME280;11491;41.942;24.220;2022-10-16T06:10:42;90680.97;;;6.21;84.59
22649;BME280;11491;41.942;24.220;2022-10-16T06:13:11;90676.22;;;6.32;84.91
22649;BME280;11491;41.942;24.220;2022-10-16T06:15:38;90643.78;;;6.21;84.00
22649;BME280;11491;41.942;24.220;2022-10-16T06:18:07;90683.63;;;6.58;84.17
22649;BME280;11491;41.942;24.220;2022-10-16T06:20:33;90674.16;;;6.65;84.06
22649;BME280;11491;41.942;24.220;2022-10-16T06:23:00;90676.25;;;6.91;84.45
22649;BME280;11491;41.942;24.220;2022-10-16T06:25:27;90673.94;;;7.21;83.81
22649;BME280;11491;41.942;24.220;2022-10-16T06:27:54;90689.53;;;7.45;83.16
22649;BME280;11491;41.942;24.220;2022-10-16T06:30:22;90680.75;;;7.67;81.97
22649;BME280;11491;41.942;24.220;2022-10-16T06:32:48;90682.06;;;7.78;81.47
22649;BME280;11491;41.942;24.220;2022-10-16T06:35:15;90688.03;;;7.92;80.95
22649;BME280;11491;41.942;24.220;2022-10-16T06:37:42;90684.69;;;8.18;80.75
22649;BME280;11491;41.942;24.220;2022-10-16T06:40:09;90681.59;;;8.33;80.77
22649;BME280;11491;41.942;24.220;2022-10-16T06:42:35;90678.38;;;8.62;80.36
22649;BME280;11491;41.942;24.220;2022-10-16T06:45:02;90680.72;;;8.81;79.52
22649;BME280;11491;41.942;24.220;2022-10-16T06:47:31;90694.69;;;8.96;79.06
22649;BME280;11491;41.942;24.220;2022-10-16T06:49:57;90687.00;;;9.03;77.84
22649;BME280;11491;41.942;24.220;2022-10-16T06:52:24;90685.72;;;9.26;77.65
22649;BME280;11491;41.942;24.220;2022-10-16T06:54:51;90679.28;;;9.45;77.98
22649;BME280;11491;41.942;24.220;2022-10-16T06:57:18;90680.97;;;9.58;77.76
22649;BME280;11491;41.942;24.220;2022-10-16T06:59:44;90682.50;;;9.77;76.92
22649;BME280;11491;41.942;24.220;2022-10-16T07:02:11;90685.41;;;10.01;77.20
22649;BME280;11491;41.942;24.220;2022-10-16T07:04:39;90690.50;;;10.24;76.41
22649;BME280;11491;41.942;24.220;2022-10-16T07:07:06;90696.38;;;10.47;75.33
22649;BME280;11491;41.942;24.220;2022-10-16T07:09:32;90696.59;;;10.63;74.21
22649;BME280;11491;41.942;24.220;2022-10-16T07:11:59;90686.03;;;10.87;73.49
22649;BME280;11491;41.942;24.220;2022-10-16T07:14:26;90689.84;;;11.07;71.85
22649;BME280;11491;41.942;24.220;2022-10-16T07:16:53;90696.78;;;11.08;70.11
22649;BME280;11491;41.942;24.220;2022-10-16T07:19:20;90695.13;;;11.16;68.82
22649;BME280;11491;41.942;24.220;2022-10-16T07:21:48;90698.50;;;11.25;70.85
22649;BME280;11491;41.942;24.220;2022-10-16T07:24:15;90691.75;;;11.40;70.33
22649;BME280;11491;41.942;24.220;2022-10-16T07:26:44;90687.06;;;11.58;68.29
22649;BME280;11491;41.942;24.220;2022-10-16T07:29:12;90687.47;;;11.60;70.05
22649;BME280;11491;41.942;24.220;2022-10-16T07:31:39;90691.66;;;11.70;70.32
22649;BME280;11491;41.942;24.220;2022-10-16T07:34:06;90694.31;;;11.91;70.14
22649;BME280;11491;41.942;24.220;2022-10-16T07:36:33;90689.63;;;12.12;69.04
22649;BME280;11491;41.942;24.220;2022-10-16T07:39:02;90697.16;;;12.31;68.49
22649;BME280;11491;41.942;24.220;2022-10-16T07:41:29;90689.13;;;12.43;68.89
22649;BME280;11491;41.942;24.220;2022-10-16T07:43:58;90698.63;;;12.53;67.13
22649;BME280;11491;41.942;24.220;2022-10-16T07:46:26;90707.09;;;12.80;68.90
22649;BME280;11491;41.942;24.220;2022-10-16T07:48:53;90698.56;;;13.02;65.49
22649;BME280;11491;41.942;24.220;2022-10-16T07:51:23;90698.09;;;13.12;64.77
22649;BME280;11491;41.942;24.220;2022-10-16T07:53:50;90696.63;;;13.15;64.32
22649;BME280;11491;41.942;24.220;2022-10-16T07:56:19;90702.06;;;13.43;64.66
22649;BME280;11491;41.942;24.220;2022-10-16T07:58:47;90693.59;;;13.85;62.72
22649;BME280;11491;41.942;24.220;2022-10-16T08:01:16;90704.75;;;14.15;62.37
22649;BME280;11491;41.942;24.220;2022-10-16T08:03:43;90698.72;;;14.34;61.05
22649;BME280;11491;41.942;24.220;2022-10-16T08:06:11;90698.13;;;14.57;58.40
22649;BME280;11491;41.942;24.220;2022-10-16T08:08:37;90706.50;;;14.87;58.52
22649;BME280;11491;41.942;24.220;2022-10-16T08:11:04;90704.97;;;15.21;56.01
22649;BME280;11491;41.942;24.220;2022-10-16T08:13:33;90704.56;;;15.39;56.47
22649;BME280;11491;41.942;24.220;2022-10-16T08:16:00;90691.38;;;15.34;52.29
22649;BME280;11491;41.942;24.220;2022-10-16T08:18:26;90715.66;;;15.53;53.05
22649;BME280;11491;41.942;24.220;2022-10-16T08:20:57;90694.38;;;15.48;53.36
22649;BME280;11491;41.942;24.220;2022-10-16T08:23:25;90702.41;;;15.83;52.90
22649;BME280;11491;41.942;24.220;2022-10-16T08:25:52;90716.44;;;16.12;52.16
22649;BME280;11491;41.942;24.220;2022-10-16T08:28:19;90721.34;;;16.06;49.88
22649;BME280;11491;41.942;24.220;2022-10-16T08:30:47;90718.34;;;16.11;51.31
22649;BME280;11491;41.942;24.220;2022-10-16T08:33:14;90707.63;;;16.15;49.01
22649;BME280;11491;41.942;24.220;2022-10-16T08:35:41;90719.53;;;16.33;48.48
22649;BME280;11491;41.942;24.220;2022-10-16T08:38:09;90707.69;;;16.19;48.72
22649;BME280;11491;41.942;24.220;2022-10-16T08:40:36;90714.78;;;16.27;48.31
22649;BME280;11491;41.942;24.220;2022-10-16T08:43:19;90715.75;;;16.38;45.81
22649;BME280;11491;41.942;24.220;2022-10-16T08:48:45;90709.25;;;16.20;47.82
22649;BME280;11491;41.942;24.220;2022-10-16T08:51:18;90711.00;;;16.31;44.69
22649;BME280;11491;41.942;24.220;2022-10-16T08:53:49;90721.16;;;16.38;49.05
22649;BME280;11491;41.942;24.220;2022-10-16T08:56:17;90707.97;;;16.79;47.10
22649;BME280;11491;41.942;24.220;2022-10-16T08:58:44;90716.84;;;17.29;45.00
22649;BME280;11491;41.942;24.220;2022-10-16T09:01:14;90730.19;;;17.75;45.01
22649;BME280;11491;41.942;24.220;2022-10-16T09:04:18;90725.63;;;17.79;43.71
22649;BME280;11491;41.942;24.220;2022-10-16T09:06:54;90716.13;;;17.62;43.46
22649;BME280;11491;41.942;24.220;2022-10-16T09:09:40;90714.53;;;17.58;44.66
22649;BME280;11491;41.942;24.220;2022-10-16T09:12:17;90716.97;;;17.97;42.37
22649;BME280;11491;41.942;24.220;2022-10-16T09:15:12;90711.44;;;18.23;42.46
22649;BME280;11491;41.942;24.220;2022-10-16T09:17:49;90715.72;;;18.65;41.49
22649;BME280;11491;41.942;24.220;2022-10-16T09:20:36;90706.91;;;19.17;42.05
22649;BME280;11491;41.942;24.220;2022-10-16T09:23:14;90710.22;;;19.51;41.12
22649;BME280;11491;41.942;24.220;2022-10-16T09:25:43;90712.03;;;19.98;41.68
22649;BME280;11491;41.942;24.220;2022-10-16T09:28:11;90709.78;;;20.15;41.29
22649;BME280;11491;41.942;24.220;2022-10-16T09:30:38;90702.13;;;20.46;39.66
22649;BME280;11491;41.942;24.220;2022-10-16T09:33:07;90706.09;;;20.95;40.12
22649;BME280;11491;41.942;24.220;2022-10-16T09:35:38;90702.22;;;20.89;38.85
22649;BME280;11491;41.942;24.220;2022-10-16T09:38:06;90704.94;;;21.06;39.78
22649;BME280;11491;41.942;24.220;2022-10-16T09:40:34;90702.59;;;21.26;38.99
22649;BME280;11491;41.942;24.220;2022-10-16T09:43:06;90700.66;;;21.48;39.53
22649;BME280;11491;41.942;24.220;2022-10-16T09:45:39;90707.66;;;21.53;38.38
22649;BME280;11491;41.942;24.220;2022-10-16T09:48:12;90702.19;;;21.67;39.02
22649;BME280;11491;41.942;24.220;2022-10-16T09:50:39;90713.09;;;21.60;38.04
22649;BME280;11491;41.942;24.220;2022-10-16T09:53:14;90706.91;;;21.42;37.35
22649;BME280;11491;41.942;24.220;2022-10-16T09:55:51;90701.84;;;21.15;37.33
22649;BME280;11491;41.942;24.220;2022-10-16T09:58:21;90706.72;;;20.34;38.52
22649;BME280;11491;41.942;24.220;2022-10-16T10:00:52;90712.44;;;19.31;38.84
22649;BME280;11491;41.942;24.220;2022-10-16T10:03:33;90711.69;;;19.37;40.64
22649;BME280;11491;41.942;24.220;2022-10-16T10:06:06;90699.41;;;18.58;40.78
22649;BME280;11491;41.942;24.220;2022-10-16T10:08:33;90707.88;;;18.53;42.76
22649;BME280;11491;41.942;24.220;2022-10-16T10:11:00;90703.69;;;19.00;40.95
22649;BME280;11491;41.942;24.220;2022-10-16T10:13:27;90704.56;;;19.15;40.14
22649;BME280;11491;41.942;24.220;2022-10-16T10:15:54;90699.19;;;19.19;37.46
22649;BME280;11491;41.942;24.220;2022-10-16T10:18:22;90698.38;;;19.14;39.07
22649;BME280;11491;41.942;24.220;2022-10-16T10:20:59;90697.09;;;19.60;39.38
22649;BME280;11491;41.942;24.220;2022-10-16T10:23:27;90691.78;;;19.71;38.90
22649;BME280;11491;41.942;24.220;2022-10-16T10:25:59;90701.19;;;19.98;39.68
22649;BME280;11491;41.942;24.220;2022-10-16T10:28:42;90694.97;;;19.94;37.34
22649;BME280;11491;41.942;24.220;2022-10-16T10:31:14;90700.69;;;19.68;38.59
22649;BME280;11491;41.942;24.220;2022-10-16T10:33:47;90687.97;;;19.86;37.55
22649;BME280;11491;41.942;24.220;2022-10-16T10:36:24;90690.38;;;20.06;38.14
22649;BME280;11491;41.942;24.220;2022-10-16T10:38:58;90688.84;;;20.19;37.53
22649;BME280;11491;41.942;24.220;2022-10-16T10:41:56;90697.41;;;20.28;36.61
22649;BME280;11491;41.942;24.220;2022-10-16T10:44:36;90689.25;;;20.25;37.33
22649;BME280;11491;41.942;24.220;2022-10-16T10:47:08;90681.09;;;20.25;37.38
22649;BME280;11491;41.942;24.220;2022-10-16T10:49:48;90692.44;;;19.53;36.36
22649;BME280;11491;41.942;24.220;2022-10-16T10:52:34;90691.69;;;19.01;38.56
22649;BME280;11491;41.942;24.220;2022-10-16T10:55:11;90688.31;;;19.15;38.72
22649;BME280;11491;41.942;24.220;2022-10-16T10:57:46;90688.53;;;19.51;37.12
22649;BME280;11491;41.942;24.220;2022-10-16T11:00:24;90682.34;;;19.54;38.25
22649;BME280;11491;41.942;24.220;2022-10-16T11:02:59;90675.25;;;19.28;38.78
22649;BME280;11491;41.942;24.220;2022-10-16T11:05:40;90675.16;;;19.13;38.76
22649;BME280;11491;41.942;24.220;2022-10-16T11:08:14;90675.84;;;18.59;37.85
22649;BME280;11491;41.942;24.220;2022-10-16T11:10:50;90655.38;;;18.20;40.04
22649;BME280;11491;41.942;24.220;2022-10-16T11:13:26;90667.97;;;18.05;38.83
22649;BME280;11491;41.942;24.220;2022-10-16T11:15:58;90673.78;;;17.43;37.39
22649;BME280;11491;41.942;24.220;2022-10-16T11:18:30;90672.91;;;17.66;38.75
22649;BME280;11491;41.942;24.220;2022-10-16T11:21:04;90669.41;;;17.96;39.52
22649;BME280;11491;41.942;24.220;2022-10-16T11:23:38;90665.06;;;18.21;38.54
22649;BME280;11491;41.942;24.220;2022-10-16T11:26:11;90670.66;;;18.43;39.57
22649;BME280;11491;41.942;24.220;2022-10-16T11:28:43;90669.97;;;18.94;38.75
22649;BME280;11491;41.942;24.220;2022-10-16T11:31:17;90654.13;;;18.96;38.02
22649;BME280;11491;41.942;24.220;2022-10-16T11:33:49;90667.19;;;18.83;37.00
22649;BME280;11491;41.942;24.220;2022-10-16T11:36:22;90670.38;;;18.51;38.08
22649;BME280;11491;41.942;24.220;2022-10-16T11:38:56;90672.97;;;18.41;38.90
22649;BME280;11491;41.942;24.220;2022-10-16T11:41:31;90659.19;;;18.57;38.68
22649;BME280;11491;41.942;24.220;2022-10-16T11:44:15;90673.56;;;19.12;38.08
22649;BME280;11491;41.942;24.220;2022-10-16T11:46:50;90673.66;;;19.27;37.56
22649;BME280;11491;41.942;24.220;2022-10-16T11:49:21;90667.44;;;19.19;36.98
22649;BME280;11491;41.942;24.220;2022-10-16T11:51:56;90661.72;;;18.76;37.51
22649;BME280;11491;41.942;24.220;2022-10-16T11:54:32;90664.47;;;18.39;37.87
22649;BME280;11491;41.942;24.220;2022-10-16T11:57:07;90659.03;;;18.39;37.31
22649;BME280;11491;41.942;24.220;2022-10-16T11:59:42;90666.59;;;18.22;38.49
22649;BME280;11491;41.942;24.220;2022-10-16T12:02:32;90667.50;;;18.34;37.85
22649;BME280;11491;41.942;24.220;2022-10-16T12:05:12;90665.66;;;18.04;38.95
22649;BME280;11491;41.942;24.220;2022-10-16T12:07:48;90681.22;;;18.14;37.54
22649;BME280;11491;41.942;24.220;2022-10-16T12:10:24;90674.25;;;17.79;38.83
22649;BME280;11491;41.942;24.220;2022-10-16T12:12:51;90688.59;;;17.83;38.66
22649;BME280;11491;41.942;24.220;2022-10-16T12:15:21;90689.16;;;17.96;38.02
22649;BME280;11491;41.942;24.220;2022-10-16T12:17:49;90681.44;;;17.68;39.82
22649;BME280;11491;41.942;24.220;2022-10-16T12:20:23;90682.56;;;17.97;36.15
22649;BME280;11491;41.942;24.220;2022-10-16T12:22:53;90689.75;;;18.57;36.08
22649;BME280;11491;41.942;24.220;2022-10-16T12:25:24;90680.19;;;18.70;34.72
22649;BME280;11491;41.942;24.220;2022-10-16T12:27:58;90684.16;;;18.77;36.02
22649;BME280;11491;41.942;24.220;2022-10-16T12:30:27;90680.00;;;18.90;34.50
22649;BME280;11491;41.942;24.220;2022-10-16T12:32:59;90688.28;;;19.11;33.47
22649;BME280;11491;41.942;24.220;2022-10-16T12:35:28;90680.47;;;18.99;35.21
22649;BME280;11491;41.942;24.220;2022-10-16T12:38:06;90685.88;;;18.96;34.20
22649;BME280;11491;41.942;24.220;2022-10-16T12:40:35;90690.13;;;18.97;34.80
22649;BME280;11491;41.942;24.220;2022-10-16T12:43:24;90697.75;;;19.39;34.58
22649;BME280;11491;41.942;24.220;2022-10-16T12:46:00;90686.91;;;19.39;33.65
22649;BME280;11491;41.942;24.220;2022-10-16T12:48:27;90689.47;;;19.73;32.56
22649;BME280;11491;41.942;24.220;2022-10-16T12:50:55;90695.06;;;20.12;32.17
22649;BME280;11491;41.942;24.220;2022-10-16T12:53:24;90705.03;;;19.90;33.13
22649;BME280;11491;41.942;24.220;2022-10-16T12:56:03;90711.31;;;20.05;33.48
22649;BME280;11491;41.942;24.220;2022-10-16T12:58:47;90715.22;;;20.15;32.69
22649;BME280;11491;41.942;24.220;2022-10-16T13:01:25;90716.00;;;20.19;31.74
22649;BME280;11491;41.942;24.220;2022-10-16T13:07:17;90722.38;;;20.70;33.08
22649;BME280;11491;41.942;24.220;2022-10-16T13:09:55;90721.59;;;20.69;33.13
22649;BME280;11491;41.942;24.220;2022-10-16T13:12:47;90723.19;;;21.20;32.33
22649;BME280;11491;41.942;24.220;2022-10-16T13:15:33;90723.56;;;21.26;30.37
22649;BME280;11491;41.942;24.220;2022-10-16T13:18:13;90741.06;;;21.57;30.93